»·PEaware :: N47DT KSNA-kcrq

N47DT :: KSNA-kcrq

FLIGHT INFORMATION

Flight Status: Arrived
Operator: Privately registered:
United States
More flights under this callsign
Pilot: Wayne C. (13792)
Aircraft: CESSNA 172 SKYHAWK
(C172)
More flights by this aircraft type
Origin: KSNA John Wayne-Orange Co
United States
Destination: kcrq McClellan-Palomar
United States
More flights between these airports :: More routes between these airports
Route: +V23 OCN
File this flight plan on PilotEdge
Remarks: I-2
Altitude:
(Current/Filed)
5,000ft
Speed:
(Current/Filed)
125kts
Departed: 29-Apr-17 01:43 PM
Arrived: 29-Apr-17 02:27 PM
Distance/Time
Traveled:
44nm/0:44
Distance/Time
To Go:
Arrived

Flight Plot

Page will automatically refresh every two minutes.


Map Options




Map Legend


Flown Route
Filed Route
Departure Airport
Arrival Airport
Navaid (VOR, NDB)
Fix

Horizontal Profiles

Position Reports

Time Latitude Longitude Heading Altitude Ground
Speed
29-Apr-17 13:30 33.672475 -117.867201 210 59ft 0kts
29-Apr-17 13:31 33.672475 -117.867200 210 59ft 0kts
29-Apr-17 13:32 33.672475 -117.867201 210 59ft 0kts
29-Apr-17 13:33 33.672475 -117.867200 210 59ft 0kts
29-Apr-17 13:34 33.672475 -117.867200 210 59ft 0kts
29-Apr-17 13:35 33.672475 -117.867200 210 59ft 0kts
29-Apr-17 13:36 33.672475 -117.867201 210 59ft 0kts
29-Apr-17 13:37 33.672475 -117.867201 210 59ft 0kts
29-Apr-17 13:38 33.672475 -117.867201 210 59ft 0kts
29-Apr-17 13:39 33.672475 -117.867200 210 59ft 0kts
29-Apr-17 13:40 33.672475 -117.867201 210 59ft 0kts
29-Apr-17 13:41 33.672475 -117.867200 210 59ft 0kts
29-Apr-17 13:42 33.673232 -117.867098 25 59ft 7kts
29-Apr-17 13:43 33.673837 -117.867403 303 59ft 0kts
29-Apr-17 13:44 33.673839 -117.867406 303 59ft 0kts
29-Apr-17 13:45 33.677792 -117.865747 34 123ft 64kts
29-Apr-17 13:46 33.689157 -117.874476 255 1279ft 86kts
29-Apr-17 13:47 33.682564 -117.902719 256 2172ft 104kts
29-Apr-17 13:48 33.670675 -117.944236 241 2113ft 145kts
29-Apr-17 13:49 33.647359 -117.969382 191 2821ft 131kts
29-Apr-17 13:50 33.612270 -117.983594 196 3386ft 137kts
29-Apr-17 13:51 33.576915 -117.996315 187 4016ft 134kts
29-Apr-17 13:52 33.547637 -118.007593 109 4043ft 132kts
29-Apr-17 13:53 33.522852 -117.978311 137 4694ft 106kts
29-Apr-17 13:54 33.503700 -117.947220 119 4996ft 122kts
29-Apr-17 13:55 33.480206 -117.915864 122 5239ft 127kts
29-Apr-17 13:56 33.463691 -117.878420 110 5272ft 127kts
29-Apr-17 13:57 33.445566 -117.840421 106 5060ft 143kts
29-Apr-17 13:58 33.433719 -117.800950 110 5235ft 125kts
29-Apr-17 13:59 33.422814 -117.777571 110 5140ft 137kts
29-Apr-17 14:00 33.403756 -117.737011 113 5143ft 141kts
29-Apr-17 14:01 33.382093 -117.697849 116 5247ft 137kts
29-Apr-17 14:02 33.358979 -117.659651 111 5325ft 132kts
29-Apr-17 14:03 33.342758 -117.616869 107 5147ft 141kts
29-Apr-17 14:04 33.323135 -117.575802 117 5095ft 147kts
29-Apr-17 14:05 33.303374 -117.536149 97 5245ft 131kts
29-Apr-17 14:06 33.276255 -117.501436 117 5190ft 144kts
29-Apr-17 14:07 33.270568 -117.461909 115 5286ft 146kts
29-Apr-17 14:08 33.248315 -117.426194 98 5254ft 131kts
29-Apr-17 14:09 33.234992 -117.386943 106 5285ft 125kts
29-Apr-17 14:10 33.199360 -117.368979 174 5009ft 153kts
29-Apr-17 14:11 33.175499 -117.349628 75 5097ft 115kts
29-Apr-17 14:12 33.180219 -117.313663 75 5180ft 114kts
29-Apr-17 14:13 33.184246 -117.276400 68 5224ft 107kts
29-Apr-17 14:14 33.186362 -117.238977 72 5193ft 119kts
29-Apr-17 14:15 33.191287 -117.199985 78 5194ft 116kts
29-Apr-17 14:16 33.190954 -117.160393 84 5174ft 122kts
29-Apr-17 14:17 33.193068 -117.123799 61 5395ft 105kts
29-Apr-17 14:18 33.205793 -117.090408 56 5347ft 114kts
29-Apr-17 14:19 33.218396 -117.055782 59 5320ft 115kts
29-Apr-17 14:20 33.202660 -117.026191 154 4697ft 138kts
29-Apr-17 14:21 33.167798 -117.011766 192 4199ft 139kts
29-Apr-17 14:22 33.159286 -117.046418 282 3884ft 111kts
29-Apr-17 14:23 33.159947 -117.082183 282 3614ft 112kts
29-Apr-17 14:24 33.154055 -117.120649 252 3118ft 132kts
29-Apr-17 14:25 33.147751 -117.163837 274 2285ft 129kts
29-Apr-17 14:26 33.140328 -117.207364 268 1380ft 130kts
29-Apr-17 14:27 33.134328 -117.248267 248 916ft 136kts
29-Apr-17 14:28 33.127959 -117.281206 287 297ft 52kts
29-Apr-17 14:29 33.127366 -117.286315 223 296ft 2kts
29-Apr-17 14:30 33.126384 -117.287330 96 296ft 0kts
29-Apr-17 14:31 33.126384 -117.287330 96 296ft 0kts

Navigation Log

Ident Type
Flight plan parsing failed, navigation log unavailable